createdAt,value
2019-04-30T00:00:51.966Z,14.05
2019-04-30T00:02:16.082Z,14.06
2019-04-30T00:03:27.736Z,14.05
2019-04-30T00:04:40.283Z,14.03
2019-04-30T00:05:42.844Z,14.02
2019-04-30T00:06:48.241Z,14.02
2019-04-30T00:07:55.052Z,14.02
2019-04-30T00:09:02.460Z,14.02
2019-04-30T00:10:07.727Z,14.01
2019-04-30T00:11:15.934Z,14.01
2019-04-30T00:12:22.037Z,14.03
2019-04-30T00:13:27.675Z,14.01
2019-04-30T00:14:39.939Z,14.00
2019-04-30T00:15:39.665Z,14.00
2019-04-30T00:16:45.102Z,13.99
2019-04-30T00:17:53.001Z,13.99
2019-04-30T00:19:00.465Z,14.01
2019-04-30T00:20:05.302Z,14.01
2019-04-30T00:21:15.169Z,14.02
2019-04-30T00:22:17.367Z,14.01
2019-04-30T00:23:29.306Z,13.98
2019-04-30T00:24:29.921Z,13.97
2019-04-30T00:25:35.334Z,13.95
2019-04-30T00:26:46.755Z,13.93
2019-04-30T00:27:48.171Z,13.93
2019-04-30T00:28:55.231Z,13.93
2019-04-30T00:30:07.348Z,13.93
2019-04-30T00:31:10.065Z,13.95
2019-04-30T00:32:16.040Z,13.96
2019-04-30T00:33:22.333Z,13.98
2019-04-30T00:34:30.877Z,13.98
2019-04-30T00:35:35.520Z,13.98
2019-04-30T00:36:41.084Z,13.98
2019-04-30T00:37:51.733Z,13.97
2019-04-30T00:38:54.814Z,13.97
2019-04-30T00:39:59.894Z,13.98
2019-04-30T00:41:06.941Z,13.98
2019-04-30T00:42:12.261Z,13.98
2019-04-30T00:43:17.443Z,13.99
2019-04-30T00:44:24.904Z,13.98
2019-04-30T00:45:29.408Z,13.98
2019-04-30T00:46:36.470Z,13.96
2019-04-30T00:47:44.628Z,13.95
2019-04-30T00:48:51.431Z,13.96
2019-04-30T00:50:00.078Z,13.96
2019-04-30T00:51:07.429Z,13.96
2019-04-30T00:52:10.662Z,13.98
2019-04-30T00:53:16.656Z,14.00
2019-04-30T00:54:22.335Z,14.01
2019-04-30T00:55:29.080Z,14.00
2019-04-30T00:56:35.528Z,13.99
2019-04-30T00:57:43.787Z,13.98
2019-04-30T00:58:47.604Z,13.96
2019-04-30T00:59:52.838Z,13.93
2019-04-30T01:01:22.716Z,13.90
2019-04-30T01:02:52.259Z,13.90
2019-04-30T01:04:02.575Z,13.90
2019-04-30T01:05:10.866Z,13.87
2019-04-30T01:06:17.211Z,13.87
2019-04-30T01:07:23.138Z,13.88
2019-04-30T01:08:28.742Z,13.88
2019-04-30T01:09:35.404Z,13.90
2019-04-30T01:10:40.591Z,13.92
2019-04-30T01:11:48.061Z,13.92
2019-04-30T01:12:52.886Z,13.91
2019-04-30T01:13:59.084Z,13.90
2019-04-30T01:15:06.399Z,13.88
2019-04-30T01:16:11.117Z,13.87
2019-04-30T01:17:16.572Z,13.83
2019-04-30T01:18:23.546Z,13.81
2019-04-30T01:19:30.664Z,13.80
2019-04-30T01:20:38.587Z,13.80
2019-04-30T01:21:46.924Z,13.80
2019-04-30T01:22:50.818Z,13.81
2019-04-30T01:23:55.934Z,13.83
2019-04-30T01:25:08.017Z,13.83
2019-04-30T01:26:08.763Z,13.82
2019-04-30T01:27:14.157Z,13.82
2019-04-30T01:28:22.849Z,13.81
2019-04-30T01:29:26.442Z,13.82
2019-04-30T01:30:31.690Z,13.82
2019-04-30T01:31:39.687Z,13.84
2019-04-30T01:32:43.750Z,13.84
2019-04-30T01:33:49.334Z,13.86
2019-04-30T01:34:54.557Z,13.88
2019-04-30T01:36:04.170Z,13.89
2019-04-30T01:37:08.715Z,13.91
2019-04-30T01:38:13.859Z,13.92
2019-04-30T01:39:19.600Z,13.91
2019-04-30T01:40:28.520Z,13.90
2019-04-30T01:41:33.737Z,13.88
2019-04-30T01:42:41.129Z,13.87
2019-04-30T01:43:45.846Z,13.83
2019-04-30T01:44:53.850Z,13.81
2019-04-30T01:46:01.749Z,13.81
2019-04-30T01:47:04.884Z,13.79
2019-04-30T01:48:12.806Z,13.81
2019-04-30T01:49:20.064Z,13.78
2019-04-30T01:50:23.829Z,13.79
2019-04-30T01:51:29.212Z,13.80
2019-04-30T01:52:51.890Z,13.80
2019-04-30T01:53:56.855Z,13.81
2019-04-30T01:55:01.807Z,13.85
2019-04-30T01:56:26.645Z,13.88
2019-04-30T01:57:49.310Z,13.87
2019-04-30T01:58:59.400Z,13.87
2019-04-30T02:00:19.571Z,13.85
2019-04-30T02:01:25.735Z,13.83
2019-04-30T02:02:32.744Z,13.82
2019-04-30T02:03:39.944Z,13.82
2019-04-30T02:04:45.267Z,13.79
2019-04-30T02:05:50.374Z,13.78
2019-04-30T02:06:55.630Z,13.76
2019-04-30T02:08:00.681Z,13.76
2019-04-30T02:09:06.545Z,13.75
2019-04-30T02:10:12.496Z,13.75
2019-04-30T02:11:18.998Z,13.78
2019-04-30T02:12:24.154Z,13.82
2019-04-30T02:13:34.185Z,13.83
2019-04-30T02:14:36.077Z,13.83
2019-04-30T02:15:41.531Z,13.85
2019-04-30T02:16:46.720Z,13.87
2019-04-30T02:17:51.949Z,13.88
2019-04-30T02:18:56.995Z,13.89
2019-04-30T02:20:02.119Z,13.89
2019-04-30T02:21:08.953Z,13.89
2019-04-30T02:22:14.036Z,13.89
2019-04-30T02:23:19.719Z,13.87
2019-04-30T02:24:25.534Z,13.86
2019-04-30T02:25:30.766Z,13.85
2019-04-30T02:26:36.220Z,13.85
2019-04-30T02:27:41.578Z,13.84
2019-04-30T02:28:46.803Z,13.85
2019-04-30T02:29:52.065Z,13.87
2019-04-30T02:30:59.965Z,13.89
2019-04-30T02:32:04.317Z,13.91
2019-04-30T02:33:09.743Z,13.91
2019-04-30T02:36:40.662Z,13.90
2019-04-30T02:38:03.143Z,13.83
2019-04-30T02:39:11.177Z,13.79
2019-04-30T02:40:20.200Z,13.74
2019-04-30T02:41:29.285Z,13.71
2019-04-30T02:42:35.520Z,13.69
2019-04-30T02:43:42.433Z,13.67
2019-04-30T02:44:50.507Z,13.64
2019-04-30T02:45:59.897Z,13.65
2019-04-30T02:47:05.302Z,13.65
2019-04-30T02:48:11.834Z,13.64
2019-04-30T02:49:20.450Z,13.65
2019-04-30T02:50:29.228Z,13.63
2019-04-30T02:51:35.009Z,13.63
2019-04-30T02:52:41.480Z,13.62
2019-04-30T02:54:24.029Z,13.63
2019-04-30T02:55:42.501Z,13.61
2019-04-30T02:56:55.537Z,13.59
2019-04-30T02:58:00.705Z,13.58
2019-04-30T02:59:05.831Z,13.58
2019-04-30T03:00:21.057Z,13.58
2019-04-30T03:01:26.158Z,13.58
2019-04-30T03:02:32.370Z,13.57
2019-04-30T03:03:39.319Z,13.57
2019-04-30T03:04:44.403Z,13.57
2019-04-30T03:05:49.754Z,13.58
2019-04-30T03:06:54.758Z,13.56
2019-04-30T03:08:00.421Z,13.55
2019-04-30T03:09:06.905Z,13.55
2019-04-30T03:10:12.140Z,13.54
2019-04-30T03:11:20.688Z,13.55
2019-04-30T03:12:25.770Z,13.53
2019-04-30T03:13:30.831Z,13.52
2019-04-30T03:14:36.154Z,13.53
2019-04-30T03:15:41.191Z,13.55
2019-04-30T03:17:00.134Z,13.56
2019-04-30T03:18:12.445Z,13.56
2019-04-30T03:19:34.446Z,13.56
2019-04-30T03:21:01.388Z,13.56
2019-04-30T03:22:10.151Z,13.53
2019-04-30T03:23:15.494Z,13.53
2019-04-30T03:24:21.155Z,13.52
2019-04-30T03:25:29.654Z,13.52
2019-04-30T03:26:33.548Z,13.53
2019-04-30T03:27:42.232Z,13.53
2019-04-30T03:28:45.824Z,13.52
2019-04-30T03:29:51.108Z,13.53
2019-04-30T03:30:57.437Z,13.55
2019-04-30T03:32:03.700Z,13.56
2019-04-30T03:33:12.642Z,13.56
2019-04-30T03:34:23.266Z,13.58
2019-04-30T03:35:23.399Z,13.60
2019-04-30T03:36:32.637Z,13.61
2019-04-30T03:37:35.665Z,13.62
2019-04-30T03:38:42.781Z,13.60
2019-04-30T03:39:49.319Z,13.59
2019-04-30T03:40:54.858Z,13.60
2019-04-30T03:41:59.914Z,13.61
2019-04-30T03:43:05.113Z,13.63
2019-04-30T03:44:18.527Z,13.63
2019-04-30T03:45:17.036Z,13.65
2019-04-30T03:46:22.200Z,13.65
2019-04-30T03:47:30.113Z,13.63
2019-04-30T03:48:35.283Z,13.64
2019-04-30T03:49:40.734Z,13.60
2019-04-30T03:50:53.241Z,13.60
2019-04-30T03:51:52.880Z,13.60
2019-04-30T03:53:00.444Z,13.60
2019-04-30T03:54:05.308Z,13.60
2019-04-30T03:55:10.692Z,13.59
2019-04-30T03:56:16.155Z,13.55
2019-04-30T03:57:21.296Z,13.55
2019-04-30T03:58:29.131Z,13.55
2019-04-30T03:59:33.495Z,13.54
2019-04-30T04:01:00.385Z,13.55
2019-04-30T04:02:22.360Z,13.54
2019-04-30T04:03:29.708Z,13.55
2019-04-30T04:04:42.198Z,13.53
2019-04-30T04:06:12.842Z,13.52
2019-04-30T04:07:53.038Z,13.51
2019-04-30T04:09:11.483Z,13.51
2019-04-30T04:10:25.784Z,13.50
2019-04-30T04:11:34.402Z,13.51
2019-04-30T04:12:39.718Z,13.52
2019-04-30T04:13:44.860Z,13.53
2019-04-30T04:14:51.173Z,13.53
2019-04-30T04:15:56.565Z,13.53
2019-04-30T04:17:01.953Z,13.50
2019-04-30T04:18:10.346Z,13.48
2019-04-30T04:19:14.289Z,13.47
2019-04-30T04:20:20.246Z,13.46
2019-04-30T04:21:25.698Z,13.45
2019-04-30T04:22:31.026Z,13.45
2019-04-30T04:23:36.188Z,13.44
2019-04-30T04:24:41.808Z,13.44
2019-04-30T04:25:49.807Z,13.42
2019-04-30T04:26:54.348Z,13.41
2019-04-30T04:28:00.531Z,13.40
2019-04-30T04:29:05.963Z,13.39
2019-04-30T04:30:11.673Z,13.38
2019-04-30T04:31:19.073Z,13.38
2019-04-30T04:32:24.654Z,13.37
2019-04-30T04:33:29.876Z,13.37
2019-04-30T04:34:35.153Z,13.38
2019-04-30T04:35:43.518Z,13.38
2019-04-30T04:36:50.619Z,13.38
2019-04-30T04:37:56.111Z,13.38
2019-04-30T04:39:01.231Z,13.38
2019-04-30T04:40:09.120Z,13.40
2019-04-30T04:41:13.527Z,13.41
2019-04-30T04:42:19.530Z,13.41
2019-04-30T04:43:25.434Z,13.41
2019-04-30T04:44:30.517Z,13.41
2019-04-30T04:45:35.923Z,13.41
2019-04-30T04:46:40.981Z,13.42
2019-04-30T04:47:46.472Z,13.42
2019-04-30T04:48:51.906Z,13.42
2019-04-30T04:49:56.911Z,13.41
2019-04-30T04:51:01.933Z,13.40
2019-04-30T04:52:07.276Z,13.40
2019-04-30T04:53:12.478Z,13.38
2019-04-30T04:54:19.939Z,13.37
2019-04-30T04:55:24.340Z,13.36
2019-04-30T04:56:30.467Z,13.34
2019-04-30T04:57:36.027Z,13.34
2019-04-30T04:58:41.686Z,13.32
2019-04-30T04:59:49.648Z,13.32
2019-04-30T05:00:53.706Z,13.32
2019-04-30T05:02:02.037Z,13.33
2019-04-30T05:03:26.194Z,13.33
2019-04-30T05:04:31.304Z,13.33
2019-04-30T05:05:36.409Z,13.33
2019-04-30T05:06:41.547Z,13.33
2019-04-30T05:07:48.620Z,13.37
2019-04-30T05:08:53.779Z,13.40
2019-04-30T05:10:00.987Z,13.45
2019-04-30T05:11:06.471Z,13.47
2019-04-30T05:12:11.435Z,13.51
2019-04-30T05:13:16.753Z,13.51
2019-04-30T05:14:22.077Z,13.51
2019-04-30T05:15:29.358Z,13.50
2019-04-30T05:16:34.581Z,13.51
2019-04-30T05:17:40.035Z,13.51
2019-04-30T05:18:45.546Z,13.52
2019-04-30T05:19:50.646Z,13.56
2019-04-30T05:20:55.826Z,13.58
2019-04-30T05:22:00.951Z,13.60
2019-04-30T05:23:06.325Z,13.61
2019-04-30T05:24:11.381Z,13.62
2019-04-30T05:25:18.566Z,13.65
2019-04-30T05:26:23.707Z,13.68
2019-04-30T05:27:30.304Z,13.71
2019-04-30T05:28:35.534Z,13.74
2019-04-30T05:29:41.124Z,13.78
2019-04-30T05:30:46.721Z,13.79
2019-04-30T05:31:51.994Z,13.82
2019-04-30T05:32:58.813Z,13.83
2019-04-30T05:34:06.374Z,13.86
2019-04-30T05:35:11.979Z,13.88
2019-04-30T05:36:19.178Z,13.89
2019-04-30T05:37:24.305Z,13.88
2019-04-30T05:38:31.319Z,13.87
2019-04-30T05:39:36.622Z,13.86
2019-04-30T05:40:42.649Z,13.86
2019-04-30T05:41:49.197Z,13.89
2019-04-30T05:42:54.393Z,13.90
2019-04-30T05:43:59.466Z,13.93
2019-04-30T05:45:05.380Z,13.93
2019-04-30T05:46:10.982Z,13.92
2019-04-30T05:47:16.115Z,13.92
2019-04-30T05:48:21.635Z,13.90
2019-04-30T05:49:28.675Z,13.89
2019-04-30T05:50:33.615Z,13.87
2019-04-30T05:51:38.904Z,13.88
2019-04-30T05:52:44.344Z,13.90
2019-04-30T05:53:49.734Z,13.92
2019-04-30T05:54:54.858Z,13.94
2019-04-30T05:56:00.132Z,13.97
2019-04-30T05:57:05.795Z,14.00
2019-04-30T05:58:10.969Z,14.00
2019-04-30T05:59:16.501Z,13.99
2019-04-30T06:00:22.027Z,13.99
2019-04-30T06:01:29.368Z,13.98
2019-04-30T06:02:34.600Z,13.98
2019-04-30T06:03:39.785Z,13.98
2019-04-30T06:04:45.097Z,14.00
2019-04-30T06:05:50.332Z,14.01
2019-04-30T06:06:55.492Z,14.03
2019-04-30T06:08:00.888Z,14.03
2019-04-30T06:09:18.766Z,14.04
2019-04-30T06:10:45.661Z,14.04
2019-04-30T06:12:15.922Z,14.05
2019-04-30T06:13:32.110Z,14.10
2019-04-30T06:14:59.346Z,14.10
2019-04-30T06:16:08.769Z,14.12
2019-04-30T06:17:16.274Z,14.15
2019-04-30T06:18:21.601Z,14.18
2019-04-30T06:19:26.595Z,14.21
2019-04-30T06:20:31.898Z,14.23
2019-04-30T06:21:39.073Z,14.28
2019-04-30T06:22:45.042Z,14.31
2019-04-30T06:23:50.228Z,14.34
2019-04-30T06:24:55.943Z,14.37
2019-04-30T06:26:09.861Z,14.41
2019-04-30T06:27:10.764Z,14.46
2019-04-30T06:28:16.458Z,14.50
2019-04-30T06:29:23.410Z,14.55
2019-04-30T06:30:29.737Z,14.60
2019-04-30T06:31:37.995Z,14.65
2019-04-30T06:32:42.717Z,14.69
2019-04-30T06:33:48.762Z,14.73
2019-04-30T06:34:54.245Z,14.75
2019-04-30T06:36:00.238Z,14.75
2019-04-30T06:37:05.626Z,14.76
2019-04-30T06:38:10.861Z,14.78
2019-04-30T06:39:18.622Z,14.77
2019-04-30T06:40:23.625Z,14.76
2019-04-30T06:41:29.580Z,14.74
2019-04-30T06:42:35.085Z,14.71
2019-04-30T06:43:40.547Z,14.68
2019-04-30T06:44:45.993Z,14.64
2019-04-30T06:45:51.579Z,14.62
2019-04-30T06:46:58.791Z,14.59
2019-04-30T06:48:05.594Z,14.54
2019-04-30T06:49:10.873Z,14.52
2019-04-30T06:50:16.548Z,14.52
2019-04-30T06:51:21.680Z,14.52
2019-04-30T06:52:26.826Z,14.53
2019-04-30T06:53:32.085Z,14.54
2019-04-30T06:54:39.267Z,14.56
2019-04-30T06:55:44.348Z,14.59
2019-04-30T06:56:49.457Z,14.64
2019-04-30T06:57:54.389Z,14.65
2019-04-30T06:58:59.540Z,14.65
2019-04-30T07:00:06.001Z,14.67
2019-04-30T07:01:11.551Z,14.67
2019-04-30T07:02:16.865Z,14.69
2019-04-30T07:03:22.551Z,14.72
2019-04-30T07:04:29.309Z,14.76
2019-04-30T07:05:34.687Z,14.81
2019-04-30T07:06:43.901Z,14.84
2019-04-30T07:08:09.208Z,14.85
2019-04-30T07:09:31.645Z,14.87
2019-04-30T07:10:36.717Z,14.90
2019-04-30T07:11:46.377Z,14.92
2019-04-30T07:12:54.932Z,14.96
2019-04-30T07:14:00.179Z,14.94
2019-04-30T07:15:05.778Z,14.95
2019-04-30T07:16:11.227Z,14.99
2019-04-30T07:17:16.419Z,14.99
2019-04-30T07:18:21.612Z,15.01
2019-04-30T07:19:32.969Z,15.02
2019-04-30T07:20:34.227Z,15.07
2019-04-30T07:21:42.886Z,15.12
2019-04-30T07:22:52.433Z,15.16
2019-04-30T07:23:55.091Z,15.16
2019-04-30T07:25:00.360Z,15.13
2019-04-30T07:26:05.558Z,15.12
2019-04-30T07:27:10.808Z,15.10
2019-04-30T07:28:16.231Z,15.07
2019-04-30T07:29:21.814Z,15.05
2019-04-30T07:30:26.934Z,15.05
2019-04-30T07:31:32.081Z,15.04
2019-04-30T07:32:38.685Z,15.02
2019-04-30T07:33:43.886Z,15.05
2019-04-30T07:34:49.636Z,15.02
2019-04-30T07:35:54.960Z,15.02
2019-04-30T07:37:11.980Z,15.01
2019-04-30T07:38:09.891Z,15.01
2019-04-30T07:39:15.298Z,15.00
2019-04-30T07:40:20.702Z,14.99
2019-04-30T07:41:26.174Z,15.00
2019-04-30T07:42:36.335Z,14.98
2019-04-30T07:43:39.517Z,15.00
2019-04-30T07:44:45.055Z,15.02
2019-04-30T07:45:50.278Z,15.05
2019-04-30T07:46:55.365Z,15.07
2019-04-30T07:48:01.841Z,15.10
2019-04-30T07:49:06.952Z,15.15
2019-04-30T07:50:12.845Z,15.19
2019-04-30T07:51:21.319Z,15.23
2019-04-30T07:52:26.084Z,15.26
2019-04-30T07:53:35.184Z,15.33
2019-04-30T07:54:40.556Z,15.38
2019-04-30T07:55:46.047Z,15.45
2019-04-30T07:56:51.118Z,15.50
2019-04-30T07:57:56.429Z,15.55
2019-04-30T07:59:02.873Z,15.57
2019-04-30T08:00:09.645Z,15.58
2019-04-30T08:01:15.179Z,15.57
2019-04-30T08:02:20.933Z,15.56
2019-04-30T08:03:51.747Z,15.55
2019-04-30T08:05:02.692Z,15.53
2019-04-30T08:06:10.114Z,15.49
2019-04-30T08:07:15.190Z,15.44
2019-04-30T08:08:24.505Z,15.38
2019-04-30T08:09:36.602Z,15.33
2019-04-30T08:10:35.208Z,15.31
2019-04-30T08:11:43.507Z,15.32
2019-04-30T08:12:49.806Z,15.31
2019-04-30T08:13:54.635Z,15.29
2019-04-30T08:14:59.711Z,15.28
2019-04-30T08:16:04.822Z,15.27
2019-04-30T08:17:10.086Z,15.25
2019-04-30T08:18:15.323Z,15.23
2019-04-30T08:19:20.732Z,15.23
2019-04-30T08:20:25.687Z,15.19
2019-04-30T08:21:30.804Z,15.17
2019-04-30T08:22:36.287Z,15.15
2019-04-30T08:23:41.887Z,15.11
2019-04-30T08:24:49.010Z,15.09
2019-04-30T08:25:53.882Z,15.11
2019-04-30T08:27:01.166Z,15.11
2019-04-30T08:28:06.329Z,15.11
2019-04-30T08:29:11.776Z,15.12
2019-04-30T08:30:23.756Z,15.15
2019-04-30T08:31:23.770Z,15.17
2019-04-30T08:32:29.139Z,15.17
2019-04-30T08:33:34.207Z,15.17
2019-04-30T08:34:39.485Z,15.19
2019-04-30T08:35:44.519Z,15.20
2019-04-30T08:36:49.685Z,15.23
2019-04-30T08:37:54.937Z,15.22
2019-04-30T08:39:00.029Z,15.22
2019-04-30T08:40:05.528Z,15.18
2019-04-30T08:41:10.748Z,15.20
2019-04-30T08:42:28.218Z,15.20
2019-04-30T08:43:23.056Z,15.19
2019-04-30T08:44:29.505Z,15.19
2019-04-30T08:45:34.927Z,15.19
2019-04-30T08:46:40.138Z,15.20
2019-04-30T08:47:45.378Z,15.22
2019-04-30T08:48:53.580Z,15.23
2019-04-30T08:49:59.422Z,15.24
2019-04-30T08:51:04.611Z,15.24
2019-04-30T08:52:10.574Z,15.24
2019-04-30T08:53:26.692Z,15.25
2019-04-30T08:54:23.268Z,15.24
2019-04-30T08:55:30.463Z,15.24
2019-04-30T08:56:35.174Z,15.25
2019-04-30T08:57:40.169Z,15.26
2019-04-30T08:58:45.236Z,15.27
2019-04-30T08:59:50.855Z,15.30
2019-04-30T09:00:56.250Z,15.33
2019-04-30T09:02:12.906Z,15.34
2019-04-30T09:03:09.391Z,15.35
2019-04-30T09:04:14.510Z,15.38
2019-04-30T09:05:38.794Z,15.42
2019-04-30T09:06:44.219Z,15.45
2019-04-30T09:07:49.678Z,15.50
2019-04-30T09:08:59.212Z,15.53
2019-04-30T09:10:04.890Z,15.54
2019-04-30T09:11:22.628Z,15.55
2019-04-30T09:12:19.431Z,15.57
2019-04-30T09:13:24.026Z,15.57
2019-04-30T09:14:30.026Z,15.56
2019-04-30T09:15:35.189Z,15.58
2019-04-30T09:16:40.332Z,15.59
2019-04-30T09:17:58.929Z,15.61
2019-04-30T09:18:52.609Z,15.63
2019-04-30T09:19:58.950Z,15.66
2019-04-30T09:21:06.469Z,15.68
2019-04-30T09:22:15.098Z,15.70
2019-04-30T09:23:18.697Z,15.69
2019-04-30T09:24:23.859Z,15.69
2019-04-30T09:25:29.068Z,15.70
2019-04-30T09:26:34.159Z,15.71
2019-04-30T09:27:39.943Z,15.70
2019-04-30T09:28:45.175Z,15.71
2019-04-30T09:29:50.287Z,15.72
2019-04-30T09:30:55.342Z,15.74
2019-04-30T09:32:00.373Z,15.75
2019-04-30T09:33:05.503Z,15.76
2019-04-30T09:34:17.131Z,15.77
2019-04-30T09:35:19.508Z,15.78
2019-04-30T09:36:24.665Z,15.78
2019-04-30T09:37:30.590Z,15.78
2019-04-30T09:38:35.748Z,15.79
2019-04-30T09:39:40.904Z,15.79
2019-04-30T09:40:46.062Z,15.80
2019-04-30T09:41:51.547Z,15.80
2019-04-30T09:42:58.513Z,15.80
2019-04-30T09:44:04.241Z,15.82
2019-04-30T09:45:09.480Z,15.84
2019-04-30T09:46:22.453Z,15.86
2019-04-30T09:47:21.720Z,15.86
2019-04-30T09:48:30.266Z,15.87
2019-04-30T09:49:33.968Z,15.87
2019-04-30T09:50:39.535Z,15.87
2019-04-30T09:51:44.807Z,15.85
2019-04-30T09:52:50.248Z,15.85
2019-04-30T09:53:59.661Z,15.86
2019-04-30T09:55:03.426Z,15.87
2019-04-30T09:58:59.252Z,15.94
2019-04-30T10:03:20.894Z,15.99
2019-04-30T10:04:30.065Z,15.99
2019-04-30T10:05:34.614Z,15.98
2019-04-30T10:06:40.402Z,15.98
2019-04-30T10:07:45.652Z,16.00
2019-04-30T10:08:51.400Z,16.04
2019-04-30T10:09:56.781Z,16.08
2019-04-30T10:11:21.732Z,16.12
2019-04-30T10:12:27.032Z,16.14
2019-04-30T10:13:32.292Z,16.20
2019-04-30T10:14:40.782Z,16.26
2019-04-30T10:16:07.035Z,16.30
2019-04-30T10:17:35.376Z,16.32
2019-04-30T10:18:40.916Z,16.34
2019-04-30T10:19:46.084Z,16.37
2019-04-30T10:20:51.320Z,16.41
2019-04-30T10:21:58.869Z,16.40
2019-04-30T10:23:03.695Z,16.42
2019-04-30T10:24:13.051Z,16.44
2019-04-30T10:25:15.781Z,16.43
2019-04-30T10:26:21.166Z,16.44
2019-04-30T10:27:26.360Z,16.43
2019-04-30T10:28:33.078Z,16.45
2019-04-30T10:29:39.510Z,16.45
2019-04-30T10:30:45.169Z,16.45
2019-04-30T10:31:50.492Z,16.45
2019-04-30T10:32:55.713Z,16.47
2019-04-30T10:34:00.894Z,16.46
2019-04-30T10:35:06.990Z,16.48
2019-04-30T10:36:12.074Z,16.49
2019-04-30T10:37:18.928Z,16.51
2019-04-30T10:38:24.204Z,16.53
2019-04-30T10:39:29.918Z,16.53
2019-04-30T10:40:35.415Z,16.54
2019-04-30T10:41:40.713Z,16.54
2019-04-30T10:42:46.100Z,16.55
2019-04-30T10:43:51.312Z,16.57
2019-04-30T10:45:00.024Z,16.59
2019-04-30T10:46:03.424Z,16.60
2019-04-30T10:47:09.365Z,16.64
2019-04-30T10:48:14.470Z,16.67
2019-04-30T10:49:20.292Z,16.71
2019-04-30T10:50:26.022Z,16.75
2019-04-30T10:51:31.206Z,16.77
2019-04-30T10:52:36.446Z,16.78
2019-04-30T10:53:41.725Z,16.80
2019-04-30T10:54:47.028Z,16.83
2019-04-30T10:55:52.211Z,16.86
2019-04-30T10:56:59.145Z,16.88
2019-04-30T10:58:04.883Z,16.92
2019-04-30T10:59:10.278Z,16.95
2019-04-30T11:00:16.068Z,16.98
2019-04-30T11:01:21.381Z,17.01
2019-04-30T11:02:28.808Z,17.01
2019-04-30T11:03:33.632Z,17.01
2019-04-30T11:04:39.079Z,16.98
2019-04-30T11:05:44.274Z,16.93
2019-04-30T11:06:49.480Z,16.90
2019-04-30T11:07:54.674Z,16.86
2019-04-30T11:09:00.040Z,16.84
2019-04-30T11:10:05.459Z,16.84
2019-04-30T11:11:10.700Z,16.86
2019-04-30T11:12:16.198Z,16.90
2019-04-30T11:13:21.705Z,16.95
2019-04-30T11:14:26.763Z,17.01
2019-04-30T11:15:31.921Z,17.07
2019-04-30T11:16:37.127Z,17.13
2019-04-30T11:17:42.444Z,17.19
2019-04-30T11:18:47.767Z,17.27
2019-04-30T11:19:53.092Z,17.32
2019-04-30T11:20:59.645Z,17.36
2019-04-30T11:22:05.337Z,17.40
2019-04-30T11:23:14.663Z,17.42
2019-04-30T11:24:19.582Z,17.43
2019-04-30T11:25:25.794Z,17.45
2019-04-30T11:26:32.427Z,17.47
2019-04-30T11:27:40.185Z,17.48
2019-04-30T11:28:44.904Z,17.49
2019-04-30T11:29:50.432Z,17.47
2019-04-30T11:31:09.421Z,17.44
2019-04-30T11:32:20.299Z,17.43
2019-04-30T11:33:25.715Z,17.41
2019-04-30T11:34:30.926Z,17.43
2019-04-30T11:35:36.396Z,17.43
2019-04-30T11:36:41.576Z,17.43
2019-04-30T11:37:47.018Z,17.44
2019-04-30T11:38:52.263Z,17.46
2019-04-30T11:39:57.567Z,17.45
2019-04-30T11:41:02.656Z,17.45
2019-04-30T11:42:07.899Z,17.45
2019-04-30T11:43:13.492Z,17.45
2019-04-30T11:44:30.310Z,17.44
2019-04-30T11:45:33.676Z,17.42
2019-04-30T11:47:09.548Z,17.41
2019-04-30T11:48:14.734Z,17.40
2019-04-30T11:49:19.756Z,17.37
2019-04-30T11:50:24.917Z,17.35
2019-04-30T11:51:30.077Z,17.35
2019-04-30T11:52:35.360Z,17.39
2019-04-30T11:53:40.537Z,17.47
2019-04-30T11:54:51.592Z,17.54
2019-04-30T11:55:53.317Z,17.61
2019-04-30T11:56:58.892Z,17.67
2019-04-30T11:58:04.133Z,17.70
2019-04-30T11:59:09.266Z,17.69
2019-04-30T12:00:18.699Z,17.68
2019-04-30T12:01:25.059Z,17.64
2019-04-30T12:02:35.673Z,17.62
2019-04-30T12:03:40.976Z,17.64
2019-04-30T12:04:46.372Z,17.65
2019-04-30T12:05:51.464Z,17.66
2019-04-30T12:06:58.530Z,17.68
2019-04-30T12:08:19.448Z,17.67
2019-04-30T12:09:49.708Z,17.66
2019-04-30T12:11:01.580Z,17.62
2019-04-30T12:12:09.041Z,17.59
2019-04-30T12:13:33.444Z,17.58
2019-04-30T12:14:39.540Z,17.57
2019-04-30T12:15:44.894Z,17.61
2019-04-30T12:16:50.711Z,17.65
2019-04-30T12:17:56.001Z,17.67
2019-04-30T12:19:01.414Z,17.70
2019-04-30T12:20:08.610Z,17.68
2019-04-30T12:21:13.884Z,17.69
2019-04-30T12:22:20.314Z,17.66
2019-04-30T12:23:26.038Z,17.63
2019-04-30T12:24:31.440Z,17.63
2019-04-30T12:25:36.486Z,17.63
2019-04-30T12:26:41.896Z,17.64
2019-04-30T12:27:48.785Z,17.67
2019-04-30T12:28:54.036Z,17.68
2019-04-30T12:29:59.514Z,17.71
2019-04-30T12:31:06.305Z,17.74
2019-04-30T12:32:11.291Z,17.77
2019-04-30T12:33:16.377Z,17.80
2019-04-30T12:34:21.584Z,17.82
2019-04-30T12:35:26.760Z,17.83
2019-04-30T12:36:32.133Z,17.83
2019-04-30T12:37:39.067Z,17.82
2019-04-30T12:38:44.323Z,17.82
2019-04-30T12:39:49.540Z,17.83
2019-04-30T12:40:56.993Z,17.86
2019-04-30T12:42:02.942Z,17.91
2019-04-30T12:43:08.255Z,17.97
2019-04-30T12:44:13.531Z,17.99
2019-04-30T12:45:19.431Z,17.99
2019-04-30T12:46:24.538Z,18.00
2019-04-30T12:47:31.238Z,17.99
2019-04-30T12:48:44.154Z,17.99
2019-04-30T12:49:55.445Z,17.97
2019-04-30T12:51:19.678Z,17.97
2019-04-30T12:52:30.256Z,17.98
2019-04-30T12:53:45.910Z,17.98
2019-04-30T12:55:00.548Z,17.99
2019-04-30T12:56:30.010Z,18.02
2019-04-30T12:57:39.275Z,18.06
2019-04-30T12:58:44.524Z,18.07
2019-04-30T12:59:49.728Z,18.07
2019-04-30T13:00:54.897Z,18.07
2019-04-30T13:02:00.140Z,18.08
2019-04-30T13:03:05.249Z,18.10
2019-04-30T13:04:10.705Z,18.11
2019-04-30T13:05:15.926Z,18.10
2019-04-30T13:06:21.874Z,18.08
2019-04-30T13:07:29.912Z,18.05
2019-04-30T13:08:34.808Z,18.03
2019-04-30T13:09:40.942Z,18.04
2019-04-30T13:10:46.955Z,18.07
2019-04-30T13:11:52.822Z,18.11
2019-04-30T13:12:59.098Z,18.15
2019-04-30T13:14:06.526Z,18.17
2019-04-30T13:15:12.266Z,18.19
2019-04-30T13:16:19.371Z,18.20
2019-04-30T13:17:24.570Z,18.21
2019-04-30T13:18:29.755Z,18.21
2019-04-30T13:19:35.116Z,18.21
2019-04-30T13:20:40.481Z,18.20
2019-04-30T13:21:45.812Z,18.21
2019-04-30T13:22:51.051Z,18.22
2019-04-30T13:23:56.123Z,18.23
2019-04-30T13:25:01.212Z,18.29
2019-04-30T13:26:06.313Z,18.35
2019-04-30T13:27:11.514Z,18.42
2019-04-30T13:28:19.733Z,18.47
2019-04-30T13:29:32.008Z,18.52
2019-04-30T13:30:39.504Z,18.55
2019-04-30T13:31:44.341Z,18.57
2019-04-30T13:33:13.707Z,18.61
2019-04-30T13:34:39.622Z,18.64
2019-04-30T13:35:44.736Z,18.72
2019-04-30T13:36:49.873Z,18.73
2019-04-30T13:37:59.916Z,18.71
2019-04-30T13:39:21.183Z,18.68
2019-04-30T13:40:44.250Z,18.64
2019-04-30T13:41:57.071Z,18.59
2019-04-30T13:43:02.430Z,18.55
2019-04-30T13:44:13.516Z,18.53
2019-04-30T13:45:20.692Z,18.54
2019-04-30T13:46:25.624Z,18.57
2019-04-30T13:47:30.845Z,18.60
2019-04-30T13:48:35.833Z,18.63
2019-04-30T13:49:40.876Z,18.68
2019-04-30T13:50:46.285Z,18.71
2019-04-30T13:51:51.535Z,18.75
2019-04-30T13:52:58.721Z,18.78
2019-04-30T13:54:03.395Z,18.82
2019-04-30T13:55:10.897Z,18.89
2019-04-30T13:56:15.808Z,18.96
2019-04-30T13:57:20.988Z,18.99
2019-04-30T13:58:26.409Z,19.00
2019-04-30T13:59:31.568Z,18.99
2019-04-30T14:00:37.015Z,18.96
2019-04-30T14:01:42.271Z,18.94
2019-04-30T14:02:53.374Z,18.90
2019-04-30T14:04:14.166Z,18.86
2019-04-30T14:05:19.421Z,18.84
2019-04-30T14:06:26.254Z,18.81
2019-04-30T14:07:50.557Z,18.77
2019-04-30T14:08:59.641Z,18.76
2019-04-30T14:10:04.824Z,18.73
2019-04-30T14:11:10.158Z,18.72
2019-04-30T14:12:15.994Z,18.71
2019-04-30T14:13:22.027Z,18.72
2019-04-30T14:14:27.000Z,18.73
2019-04-30T14:15:32.544Z,18.75
2019-04-30T14:16:37.577Z,18.77
2019-04-30T14:17:42.882Z,18.79
2019-04-30T14:18:48.810Z,18.82
2019-04-30T14:19:53.984Z,18.80
2019-04-30T14:21:00.960Z,18.80
2019-04-30T14:22:08.889Z,18.79
2019-04-30T14:23:14.584Z,18.81
2019-04-30T14:24:19.934Z,18.82
2019-04-30T14:25:25.075Z,18.82
2019-04-30T14:26:30.381Z,18.82
2019-04-30T14:27:36.039Z,18.82
2019-04-30T14:28:41.311Z,18.81
2019-04-30T14:29:46.443Z,18.79
2019-04-30T14:30:51.592Z,18.80
2019-04-30T14:31:58.636Z,18.78
2019-04-30T14:33:03.757Z,18.78
2019-04-30T14:34:11.922Z,18.76